Terminal Aerodrome Forecast
Issued by NWS

Home | Current Version | Previous Version | Text Only | Print | Product List | Glossary Off
Versions: 1 2 3 4 5 6 7 8 9 10 11 12 13 14 15 16

000
FTUS43 KTOP 162300 RRA
TAFMHK
TAF
KMHK 162348Z 1700/1724 32015G27KT P6SM BKN100
     FM170100 31013KT P6SM BKN100
     FM170500 36007KT P6SM BKN120=

USA.gov is the U.S. government's official web portal to all federal, state and local government web resources and services.